Time;durP1;ratioP1;P1;durP2;ratioP2;P2;SDS_P1;SDS_P2;PMS_P1;PMS_P2;Temp;Humidity;BMP_temperature;BMP_pressure;BME280_temperature;BME280_humidity;BME280_pressure;Samples;Min_cycle;Max_cycle;Signal;HPM_P1;HPM_P2
2022/10/12 00:00:33;;;;;;;12.43;4.47;;;;;;;12.95;100.00;101309.38;5027215;28;20026;-86
2022/10/12 00:02:59;;;;;;;9.85;3.72;;;;;;;12.98;100.00;101316.09;5023825;28;20045;-86
2022/10/12 00:05:24;;;;;;;11.00;4.25;;;;;;;13.04;100.00;101313.75;5032800;28;20029;-85
2022/10/12 00:07:50;;;;;;;7.03;4.70;;;;;;;13.01;100.00;101313.22;5043898;28;20353;-86
2022/10/12 00:10:17;;;;;;;4.55;3.85;;;;;;;12.98;100.00;101314.31;5043271;28;20040;-86
2022/10/12 00:12:43;;;;;;;9.00;4.75;;;;;;;12.88;100.00;101318.72;5027148;28;20484;-85
2022/10/12 00:15:10;;;;;;;9.25;4.85;;;;;;;12.80;100.00;101315.97;5029961;28;20025;-86
2022/10/12 00:17:35;;;;;;;11.48;4.38;;;;;;;12.76;100.00;101320.66;5005059;28;20504;-86
2022/10/12 00:20:04;;;;;;;7.93;4.80;;;;;;;12.79;100.00;101320.38;5026507;28;20025;-86
2022/10/12 00:22:30;;;;;;;10.70;4.80;;;;;;;12.83;100.00;101315.69;5026931;28;20052;-86
2022/10/12 00:24:55;;;;;;;7.78;4.88;;;;;;;12.84;100.00;101312.94;5009592;28;20033;-86
2022/10/12 00:27:21;;;;;;;8.43;4.13;;;;;;;12.81;100.00;101310.59;5036011;28;20392;-86
2022/10/12 00:29:47;;;;;;;12.15;5.50;;;;;;;12.75;100.00;101315.59;5031054;28;20041;-86
2022/10/12 00:32:12;;;;;;;7.97;4.95;;;;;;;12.76;100.00;101312.81;5023252;28;20032;-86
2022/10/12 00:34:37;;;;;;;7.43;4.53;;;;;;;12.75;100.00;101310.34;5008071;28;20029;-85
2022/10/12 00:37:03;;;;;;;9.82;5.22;;;;;;;12.76;100.00;101314.63;5023541;28;20123;-85
2022/10/12 00:39:28;;;;;;;12.82;4.43;;;;;;;12.75;100.00;101315.59;5006841;28;20024;-85
2022/10/12 00:41:53;;;;;;;6.90;3.95;;;;;;;12.69;100.00;101309.13;5024859;28;20050;-85
2022/10/12 00:44:37;;;;;;;8.93;4.93;;;;;;;12.67;100.00;101310.22;5022195;28;20026;-86
2022/10/12 00:47:34;;;;;;;12.25;4.80;;;;;;;12.67;100.00;101311.03;5038104;28;20079;-85
2022/10/12 00:49:59;;;;;;;;;;;;;;;12.57;100.00;101313.66;5024898;28;20029;-87
2022/10/12 00:52:33;;;;;;;10.37;4.90;;;;;;;12.56;100.00;101316.41;5024889;28;19927;-86
2022/10/12 00:55:00;;;;;;;9.13;3.92;;;;;;;12.53;100.00;101304.44;5045493;28;20029;-85
2022/10/12 00:57:26;;;;;;;8.63;3.97;;;;;;;12.53;100.00;101307.03;5024191;28;20033;-86
2022/10/12 00:59:56;;;;;;;7.88;4.30;;;;;;;12.53;100.00;101301.81;5019527;28;20045;-86
2022/10/12 01:02:25;;;;;;;14.65;4.55;;;;;;;12.53;100.00;101303.59;5013929;28;20033;-86
2022/10/12 01:04:51;;;;;;;9.98;4.68;;;;;;;12.53;100.00;101293.16;5024767;28;20029;-85
2022/10/12 01:07:17;;;;;;;10.75;5.35;;;;;;;12.51;100.00;101295.06;5004991;28;20026;-85
2022/10/12 01:09:42;;;;;;;8.75;4.20;;;;;;;12.43;100.00;101297.53;5025752;28;20067;-85
2022/10/12 01:12:08;;;;;;;8.10;4.70;;;;;;;12.44;100.00;101296.56;5025040;28;20078;-85
2022/10/12 01:14:34;;;;;;;9.85;4.63;;;;;;;12.49;100.00;101287.38;5025387;28;20113;-85
2022/10/12 01:17:09;;;;;;;8.38;4.60;;;;;;;12.48;100.00;101296.16;5006649;28;20515;-85
2022/10/12 01:20:04;;;;;;;10.90;4.53;;;;;;;12.48;100.00;101300.56;5028110;28;20037;-86
2022/10/12 01:22:36;;;;;;;8.27;3.65;;;;;;;12.45;100.00;101290.38;5021308;28;20122;-85
2022/10/12 01:25:28;;;;;;;15.90;4.45;;;;;;;12.42;100.00;101294.09;5002529;28;20077;-85
2022/10/12 01:28:04;;;;;;;9.82;3.97;;;;;;;12.35;100.00;101302.63;5014240;28;20344;-86
2022/10/12 01:30:35;;;;;;;5.65;3.92;;;;;;;12.36;100.00;101304.25;5019831;28;20172;-85
2022/10/12 01:33:09;;;;;;;6.60;3.70;;;;;;;12.33;100.00;101294.91;5020649;28;20087;-86
2022/10/12 01:35:52;;;;;;;13.13;4.45;;;;;;;12.28;100.00;101290.13;5014898;28;20085;-85
2022/10/12 01:39:09;;;;;;;8.05;5.10;;;;;;;12.21;100.00;101293.41;5044948;28;20037;-86
2022/10/12 01:41:48;;;;;;;5.60;3.75;;;;;;;12.16;100.00;101296.41;4967304;28;20253;-85
2022/10/12 01:44:21;;;;;;;9.85;4.30;;;;;;;12.17;100.00;101298.06;5024479;28;20037;-85
2022/10/12 01:46:47;;;;;;;8.57;4.45;;;;;;;12.17;100.00;101299.84;5026543;28;20026;-85
2022/10/12 01:49:15;;;;;;;8.35;4.07;;;;;;;12.14;100.00;101298.34;5026315;28;20123;-85
2022/10/12 01:51:58;;;;;;;9.38;3.88;;;;;;;12.12;100.00;101297.63;5027659;28;20393;-85
2022/10/12 01:54:39;;;;;;;6.40;4.20;;;;;;;12.10;100.00;101296.94;5024841;28;20052;-85
2022/10/12 01:57:04;;;;;;;13.20;4.82;;;;;;;12.09;100.00;101289.25;5029494;28;20101;-85
2022/10/12 01:59:49;;;;;;;5.80;4.13;;;;;;;12.06;100.00;101284.28;5009816;28;20547;-85
2022/10/12 02:02:45;;;;;;;9.57;4.28;;;;;;;12.05;100.00;101293.09;5028519;28;20141;-85
2022/10/12 02:05:22;;;;;;;8.33;3.53;;;;;;;12.09;100.00;101291.84;4995797;28;20091;-85
2022/10/12 02:07:54;;;;;;;5.60;4.05;;;;;;;12.01;100.00;101286.47;5029456;28;20284;-85
2022/10/12 02:10:45;;;;;;;7.20;3.92;;;;;;;11.94;100.00;101287.00;5027101;28;20037;-85
2022/10/12 02:13:14;;;;;;;12.93;5.22;;;;;;;11.96;100.00;101286.88;5027951;28;20424;-85
2022/10/12 02:15:41;;;;;;;11.00;4.75;;;;;;;12.00;100.00;101284.81;5024376;28;20052;-85
2022/10/12 02:18:11;;;;;;;12.73;4.47;;;;;;;12.01;100.00;101274.25;5026631;28;20186;-85
2022/10/12 02:20:39;;;;;;;7.63;4.68;;;;;;;11.99;100.00;101278.78;5004180;28;20508;-87
2022/10/12 02:23:06;;;;;;;17.75;4.10;;;;;;;11.96;100.00;101274.63;5025352;28;20104;-86
2022/10/12 02:25:32;;;;;;;11.00;4.68;;;;;;;11.89;100.00;101272.69;5012686;28;20033;-86
2022/10/12 02:28:14;;;;;;;10.82;4.32;;;;;;;11.87;100.00;101272.00;5030286;28;20116;-87
2022/10/12 02:30:50;;;;;;;7.43;4.43;;;;;;;11.87;100.00;101266.78;5026688;28;20056;-86
2022/10/12 02:33:18;;;;;;;7.57;4.13;;;;;;;11.84;100.00;101261.81;5024705;28;20186;-85
2022/10/12 02:35:52;;;;;;;16.23;5.00;;;;;;;11.77;100.00;101253.72;5022369;28;20033;-86
2022/10/12 02:38:26;;;;;;;11.15;5.47;;;;;;;11.78;100.00;101259.75;5006503;28;20516;-86
2022/10/12 02:40:56;;;;;;;8.20;3.80;;;;;;;11.77;100.00;101260.72;5023599;28;20030;-85
2022/10/12 02:43:33;;;;;;;11.15;4.68;;;;;;;11.75;100.00;101254.78;5005225;28;20485;-85
2022/10/12 02:45:59;;;;;;;6.50;3.80;;;;;;;11.79;100.00;101250.97;5022307;28;20139;-85
2022/10/12 02:48:27;;;;;;;13.60;4.78;;;;;;;11.71;100.00;101258.59;5026691;28;20366;-85
2022/10/12 02:50:55;;;;;;;8.38;4.05;;;;;;;11.72;100.00;101244.59;5005570;28;20416;-86
2022/10/12 02:53:22;;;;;;;6.38;4.07;;;;;;;11.70;100.00;101249.13;5028388;28;20160;-85
2022/10/12 02:55:53;;;;;;;10.38;4.57;;;;;;;11.67;100.00;101249.38;5027778;28;20083;-85
2022/10/12 02:58:19;;;;;;;11.32;3.88;;;;;;;11.61;100.00;101248.97;5021740;28;20029;-85
2022/10/12 03:00:45;;;;;;;11.23;4.30;;;;;;;11.58;100.00;101249.22;5021681;28;20056;-85
2022/10/12 03:03:11;;;;;;;11.48;4.32;;;;;;;11.54;100.00;101258.25;5005492;28;20493;-86
2022/10/12 03:05:36;;;;;;;7.43;4.10;;;;;;;11.52;100.00;101251.53;5022607;28;20048;-86
2022/10/12 03:08:02;;;;;;;7.13;3.90;;;;;;;11.56;100.00;101253.75;5022065;28;20029;-85
2022/10/12 03:10:27;;;;;;;12.35;4.72;;;;;;;11.66;100.00;101256.38;5006325;28;20116;-85
2022/10/12 03:12:53;;;;;;;10.57;3.75;;;;;;;11.64;100.00;101258.31;5025233;28;20029;-85
2022/10/12 03:15:19;;;;;;;10.70;3.85;;;;;;;11.63;100.00;101254.88;5359097;22;20091;-85
2022/10/12 03:17:44;;;;;;;10.02;4.03;;;;;;;11.66;100.00;101260.78;5047432;28;20072;-85
2022/10/12 03:20:10;;;;;;;6.72;3.78;;;;;;;11.70;100.00;101252.56;5047709;28;20032;-85
2022/10/12 03:22:35;;;;;;;11.20;4.53;;;;;;;11.70;100.00;101262.19;5047805;28;20021;-86
2022/10/12 03:25:01;;;;;;;12.02;4.47;;;;;;;11.66;100.00;101256.38;5047489;28;20040;-86
2022/10/12 03:27:26;;;;;;;9.70;4.72;;;;;;;11.59;100.00;101256.09;5045798;28;20164;-86
2022/10/12 03:29:52;;;;;;;6.50;3.22;;;;;;;11.50;100.00;101264.69;5048128;28;20495;-86
2022/10/12 03:32:17;;;;;;;8.38;4.15;;;;;;;11.47;100.00;101257.13;5062929;28;20177;-85
2022/10/12 03:34:43;;;;;;;6.95;4.57;;;;;;;11.48;100.00;101261.41;5047859;28;20067;-85
2022/10/12 03:37:08;;;;;;;7.93;4.00;;;;;;;11.48;100.00;101255.34;5047529;28;20493;-86
2022/10/12 03:39:34;;;;;;;10.05;3.92;;;;;;;11.46;100.00;101252.88;5045721;28;20029;-85
2022/10/12 03:41:59;;;;;;;7.35;3.72;;;;;;;11.41;100.00;101252.44;5045742;28;20028;-85
2022/10/12 03:44:25;;;;;;;9.68;4.47;;;;;;;11.38;100.00;101247.47;5062173;28;20025;-85
2022/10/12 03:46:50;;;;;;;11.52;3.92;;;;;;;11.44;100.00;101252.16;5047511;28;20103;-86
2022/10/12 03:49:16;;;;;;;9.23;4.90;;;;;;;11.45;100.00;101247.78;5047554;28;20025;-85
2022/10/12 03:51:41;;;;;;;9.18;4.55;;;;;;;11.45;100.00;101259.03;5045345;28;20105;-85
2022/10/12 03:54:06;;;;;;;7.15;3.95;;;;;;;11.43;100.00;101249.69;5047438;28;20377;-85
2022/10/12 03:56:32;;;;;;;9.25;3.97;;;;;;;11.42;100.00;101253.25;5046987;28;20391;-85
2022/10/12 03:58:57;;;;;;;7.20;3.63;;;;;;;11.43;100.00;101250.53;5047350;28;20025;-86
2022/10/12 04:01:23;;;;;;;6.22;3.72;;;;;;;11.41;100.00;101257.66;5061991;28;20545;-85
2022/10/12 04:03:48;;;;;;;10.82;4.07;;;;;;;11.35;100.00;101259.94;5046999;28;20025;-85
2022/10/12 04:06:14;;;;;;;10.55;4.03;;;;;;;11.31;100.00;101251.59;5046966;28;20135;-86
2022/10/12 04:08:40;;;;;;;11.15;3.88;;;;;;;11.30;100.00;101255.16;5046289;28;20337;-85
2022/10/12 04:11:05;;;;;;;8.40;4.38;;;;;;;11.25;100.00;101254.72;5046463;28;20076;-85
2022/10/12 04:13:31;;;;;;;14.20;4.43;;;;;;;11.18;100.00;101257.00;5044461;28;20116;-85
2022/10/12 04:16:01;;;;;;;9.32;4.00;;;;;;;11.16;100.00;101248.47;5046237;28;20400;-85
2022/10/12 04:18:27;;;;;;;13.57;4.07;;;;;;;11.14;100.00;101246.97;5046570;28;20185;-85
2022/10/12 04:20:52;;;;;;;9.95;4.03;;;;;;;11.13;100.00;101242.69;5045067;28;20697;-86
2022/10/12 04:23:18;;;;;;;14.85;3.80;;;;;;;11.10;100.00;101245.56;5046186;28;20428;-85
2022/10/12 04:25:43;;;;;;;8.90;4.38;;;;;;;11.09;100.00;101246.50;5046290;28;20021;-85
2022/10/12 04:28:09;;;;;;;8.50;4.20;;;;;;;11.04;100.00;101239.06;5044382;28;20086;-86
2022/10/12 04:30:34;;;;;;;8.13;4.30;;;;;;;10.98;100.00;101240.41;5046473;28;20035;-85
2022/10/12 04:32:59;;;;;;;8.43;4.15;;;;;;;11.00;100.00;101250.72;5046334;28;20503;-85
2022/10/12 04:35:25;;;;;;;13.27;3.78;;;;;;;11.00;100.00;101244.69;5046141;28;20039;-85
2022/10/12 04:37:50;;;;;;;10.70;3.55;;;;;;;11.01;100.00;101254.16;5061681;28;20071;-85
2022/10/12 04:40:16;;;;;;;11.60;3.95;;;;;;;11.05;100.00;101258.16;5046693;28;20430;-85
2022/10/12 04:42:41;;;;;;;9.77;3.47;;;;;;;11.03;100.00;101257.47;5045844;28;20609;-85
2022/10/12 04:45:07;;;;;;;8.93;4.32;;;;;;;11.03;100.00;101263.50;5066283;28;20025;-85
2022/10/12 04:47:34;;;;;;;8.57;3.45;;;;;;;11.04;100.00;101269.53;5086855;28;20017;-85
2022/10/12 04:49:59;;;;;;;11.10;4.28;;;;;;;11.00;100.00;101263.75;5064183;28;20039;-85
2022/10/12 04:52:25;;;;;;;6.28;3.90;;;;;;;11.01;100.00;101264.59;5057489;28;20037;-85
2022/10/12 04:54:50;;;;;;;13.05;4.25;;;;;;;10.99;100.00;101262.09;5046685;28;20028;-85
2022/10/12 04:57:15;;;;;;;10.82;4.25;;;;;;;10.95;100.00;101266.75;5045683;28;20033;-85
2022/10/12 04:59:41;;;;;;;13.32;4.32;;;;;;;10.91;100.00;101267.94;5059945;28;20037;-85
2022/10/12 05:02:06;;;;;;;11.75;4.43;;;;;;;10.96;100.00;101267.56;5046271;28;20361;-86
2022/10/12 05:04:31;;;;;;;15.80;4.22;;;;;;;11.03;100.00;101260.91;5044044;28;20383;-85
2022/10/12 05:06:57;;;;;;;8.20;3.75;;;;;;;11.07;100.00;101264.06;5059818;28;20036;-85
2022/10/12 05:09:22;;;;;;;7.72;3.58;;;;;;;11.05;100.00;101264.19;5046033;28;20394;-85
2022/10/12 05:11:48;;;;;;;12.07;4.13;;;;;;;11.05;100.00;101263.38;5045567;28;20451;-86
2022/10/12 05:14:13;;;;;;;7.30;4.50;;;;;;;11.02;100.00;101259.25;5045852;28;20440;-86
2022/10/12 05:16:39;;;;;;;7.22;3.65;;;;;;;11.01;100.00;101261.97;5045464;28;20047;-85
2022/10/12 05:19:04;;;;;;;11.80;4.38;;;;;;;10.99;100.00;101262.09;5048205;28;20025;-85
2022/10/12 05:21:30;;;;;;;7.72;3.78;;;;;;;10.95;100.00;101260.69;5049380;28;20074;-86
2022/10/12 05:23:55;;;;;;;7.70;4.03;;;;;;;11.02;100.00;101266.22;5048165;28;20040;-85
2022/10/12 05:26:20;;;;;;;6.05;3.35;;;;;;;11.04;100.00;101262.53;5049446;28;20029;-85
2022/10/12 05:28:46;;;;;;;8.77;4.18;;;;;;;11.02;100.00;101267.06;5047698;28;20101;-85
2022/10/12 05:31:11;;;;;;;11.20;4.18;;;;;;;11.03;100.00;101273.09;5049260;28;20025;-85
2022/10/12 05:33:37;;;;;;;13.23;4.43;;;;;;;11.01;100.00;101269.78;5049806;28;20036;-85
2022/10/12 05:36:03;;;;;;;7.40;3.75;;;;;;;11.10;100.00;101271.63;5050007;28;20154;-84
2022/10/12 05:38:28;;;;;;;9.68;3.85;;;;;;;11.13;100.00;101264.38;5050021;28;20032;-85
2022/10/12 05:40:54;;;;;;;11.80;4.43;;;;;;;11.16;100.00;101268.53;5050066;28;20037;-85
2022/10/12 05:43:19;;;;;;;7.35;3.72;;;;;;;11.15;100.00;101259.03;5048832;28;20058;-85
2022/10/12 05:45:45;;;;;;;9.35;4.78;;;;;;;11.14;100.00;101252.19;5048562;28;20032;-85
2022/10/12 05:48:10;;;;;;;7.88;3.92;;;;;;;11.14;100.00;101265.22;5047874;28;20021;-85
2022/10/12 05:50:36;;;;;;;17.23;3.90;;;;;;;11.13;100.00;101263.56;5055298;28;20041;-84
2022/10/12 05:53:01;;;;;;;14.15;4.90;;;;;;;11.15;100.00;101266.88;5049946;28;20021;-85
2022/10/12 05:55:27;;;;;;;12.30;5.65;;;;;;;11.22;100.00;101262.78;5047827;28;20287;-85
2022/10/12 05:57:52;;;;;;;11.90;4.03;;;;;;;11.28;100.00;101262.28;5049745;28;20082;-84
2022/10/12 06:00:18;;;;;;;15.60;4.82;;;;;;;11.25;100.00;101271.19;5049049;28;20033;-85
2022/10/12 06:02:43;;;;;;;11.23;4.53;;;;;;;11.19;100.00;101276.91;5049139;28;20142;-84
2022/10/12 06:05:09;;;;;;;9.57;4.15;;;;;;;11.24;100.00;101276.53;5048283;28;20029;-85
2022/10/12 06:07:34;;;;;;;14.98;4.38;;;;;;;11.30;100.00;101276.84;5049799;28;20337;-85
2022/10/12 06:10:00;;;;;;;13.25;4.70;;;;;;;11.43;100.00;101274.00;5049077;28;20476;-84
2022/10/12 06:12:26;;;;;;;12.10;5.55;;;;;;;11.52;100.00;101275.84;5048843;28;20485;-84
2022/10/12 06:14:52;;;;;;;9.05;4.75;;;;;;;11.61;100.00;101267.22;5048320;28;20021;-85
2022/10/12 06:17:17;;;;;;;12.18;4.60;;;;;;;11.69;100.00;101278.78;5048573;28;20099;-84
2022/10/12 06:19:43;;;;;;;13.43;4.50;;;;;;;11.82;100.00;101284.63;5048379;28;20396;-84
2022/10/12 06:22:08;;;;;;;9.70;4.32;;;;;;;11.90;100.00;101287.41;5048540;28;20464;-85
2022/10/12 06:24:33;;;;;;;11.50;4.75;;;;;;;12.00;100.00;101293.47;5048034;28;20087;-85
2022/10/12 06:26:59;;;;;;;12.98;4.55;;;;;;;12.14;100.00;101293.09;5046424;28;20025;-82
2022/10/12 06:29:24;;;;;;;12.65;4.25;;;;;;;12.25;100.00;101298.22;5046981;28;20468;-81
2022/10/12 06:31:51;;;;;;;10.18;4.65;;;;;;;12.33;100.00;101299.31;5048028;28;20013;-81
2022/10/12 06:34:16;;;;;;;11.52;4.30;;;;;;;12.50;100.00;101303.88;5047925;28;20461;-81
2022/10/12 06:36:42;;;;;;;11.25;4.70;;;;;;;12.71;100.00;101301.13;5047791;28;20029;-81
2022/10/12 06:39:08;;;;;;;10.43;4.63;;;;;;;12.86;100.00;101310.19;5047804;28;20028;-81
2022/10/12 06:41:34;;;;;;;13.45;4.43;;;;;;;12.98;100.00;101303.03;5047719;28;20065;-80
2022/10/12 06:44:02;;;;;;;6.97;4.35;;;;;;;13.05;100.00;101306.75;5047525;28;20054;-81
2022/10/12 06:46:27;;;;;;;8.27;4.07;;;;;;;13.09;100.00;101305.50;5046367;28;20408;-81
2022/10/12 06:48:53;;;;;;;12.43;4.45;;;;;;;13.15;100.00;101305.75;5046425;28;20029;-81
2022/10/12 06:51:18;;;;;;;12.73;4.50;;;;;;;13.21;100.00;101313.09;5047754;28;20104;-81
2022/10/12 06:53:43;;;;;;;10.32;4.40;;;;;;;13.29;100.00;101314.97;5047063;28;20120;-82
2022/10/12 06:56:10;;;;;;;16.35;5.10;;;;;;;13.34;100.00;101310.16;5047129;28;20037;-81
2022/10/12 06:58:36;;;;;;;14.68;5.22;;;;;;;13.37;100.00;101322.94;5044599;28;20480;-81
2022/10/12 07:01:06;;;;;;;11.00;4.45;;;;;;;13.50;100.00;101320.03;5027446;28;20095;-82
2022/10/12 07:03:32;;;;;;;14.80;4.07;;;;;;;13.64;100.00;101322.19;5027312;28;20041;-82
2022/10/12 07:06:07;;;;;;;17.17;4.78;;;;;;;13.75;100.00;101323.78;5029526;28;20025;-81
2022/10/12 07:08:33;;;;;;;10.20;4.05;;;;;;;13.87;100.00;101322.63;5045439;28;20526;-81
2022/10/12 07:11:00;;;;;;;13.77;5.82;;;;;;;13.95;100.00;101317.50;5046924;28;20025;-81
2022/10/12 07:13:25;;;;;;;10.23;4.15;;;;;;;14.03;100.00;101327.25;5047294;28;20029;-82
2022/10/12 07:15:51;;;;;;;9.18;3.40;;;;;;;14.12;100.00;101321.13;5057966;28;20063;-81
2022/10/12 07:18:17;;;;;;;10.85;2.97;;;;;;;14.23;100.00;101323.53;5066128;28;20105;-82
2022/10/12 07:20:42;;;;;;;10.25;4.15;;;;;;;14.35;100.00;101324.16;5047293;28;20087;-81
2022/10/12 07:23:08;;;;;;;8.43;3.60;;;;;;;14.48;100.00;101329.91;5046571;28;20032;-81
2022/10/12 07:25:33;;;;;;;9.60;3.22;;;;;;;14.53;100.00;101323.22;5046782;28;20025;-81
2022/10/12 07:27:58;;;;;;;6.68;3.08;;;;;;;14.58;100.00;101328.03;5046536;28;20475;-82
2022/10/12 07:30:24;;;;;;;12.25;3.30;;;;;;;14.65;100.00;101323.81;5046298;28;20078;-81
2022/10/12 07:32:49;;;;;;;7.93;2.80;;;;;;;14.67;100.00;101334.16;5037499;28;20080;-82
2022/10/12 07:35:15;;;;;;;6.75;3.38;;;;;;;14.65;100.00;101336.13;5031537;28;20029;-81
2022/10/12 07:37:40;;;;;;;15.07;3.83;;;;;;;14.66;100.00;101337.75;5038126;28;20032;-81
2022/10/12 07:40:06;;;;;;;10.98;3.80;;;;;;;14.68;100.00;101328.75;5038409;28;20127;-82
2022/10/12 07:42:32;;;;;;;9.27;3.40;;;;;;;14.72;100.00;101337.97;5040091;28;20060;-81
2022/10/12 07:44:57;;;;;;;11.65;3.88;;;;;;;14.79;100.00;101341.66;5046013;28;20508;-81
2022/10/12 07:47:22;;;;;;;10.05;3.72;;;;;;;14.85;100.00;101348.09;5044486;28;20036;-81
2022/10/12 07:49:48;;;;;;;9.95;3.67;;;;;;;14.95;100.00;101343.59;5046091;28;20374;-81
2022/10/12 07:52:13;;;;;;;8.13;3.00;;;;;;;15.04;100.00;101349.75;5046500;28;20043;-81
2022/10/12 07:54:39;;;;;;;9.98;3.13;;;;;;;15.16;100.00;101344.06;5046577;28;20032;-81
2022/10/12 07:57:04;;;;;;;9.20;3.08;;;;;;;15.18;100.00;101354.41;5046409;28;20044;-81
2022/10/12 07:59:29;;;;;;;7.95;3.22;;;;;;;15.23;100.00;101352.97;5042492;28;20082;-81
2022/10/12 08:01:55;;;;;;;8.85;3.20;;;;;;;15.30;100.00;101353.19;5038287;28;20040;-81
2022/10/12 08:04:20;;;;;;;11.20;4.10;;;;;;;15.38;100.00;101353.25;5040929;28;20527;-81
2022/10/12 08:06:46;;;;;;;8.00;3.28;;;;;;;15.44;100.00;101350.03;5040350;28;20060;-81
2022/10/12 08:09:11;;;;;;;10.35;3.85;;;;;;;15.50;100.00;101345.94;5039564;28;20438;-82
2022/10/12 08:11:40;;;;;;;5.22;3.10;;;;;;;15.57;100.00;101347.84;5042622;28;20480;-81
2022/10/12 08:14:12;;;;;;;7.68;3.30;;;;;;;15.66;99.80;101348.69;5045954;28;20029;-81
2022/10/12 08:16:37;;;;;;;8.45;3.00;;;;;;;15.79;99.17;101345.63;5044519;28;20522;-81
2022/10/12 08:19:03;;;;;;;9.68;3.30;;;;;;;15.88;98.38;101349.94;5045003;28;20036;-82
2022/10/12 08:21:28;;;;;;;14.38;3.80;;;;;;;15.94;98.05;101344.06;5045632;28;20064;-81
2022/10/12 08:23:53;;;;;;;5.85;3.17;;;;;;;16.00;98.23;101343.44;5043729;28;20044;-81
2022/10/12 08:26:19;;;;;;;10.23;3.45;;;;;;;16.07;97.60;101349.69;5043627;28;20025;-81
2022/10/12 08:28:44;;;;;;;9.50;3.17;;;;;;;16.07;97.20;101352.31;5042334;28;20537;-81
2022/10/12 08:31:13;;;;;;;8.65;3.13;;;;;;;16.04;97.25;101350.03;5043091;28;20033;-81
2022/10/12 08:33:39;;;;;;;8.77;2.90;;;;;;;16.08;95.84;101351.31;5045939;28;20090;-81
2022/10/12 08:36:05;;;;;;;9.48;3.20;;;;;;;16.18;95.35;101353.84;5044514;28;20423;-79
2022/10/12 08:38:31;;;;;;;6.30;2.97;;;;;;;16.22;94.19;101356.00;5041993;28;20027;-82
2022/10/12 08:41:15;;;;;;;5.30;2.78;;;;;;;16.33;93.66;101354.06;5038425;28;20472;-81
2022/10/12 08:43:52;;;;;;;7.03;3.03;;;;;;;16.37;91.58;101350.94;5043172;28;20427;-81
2022/10/12 08:46:23;;;;;;;9.85;3.53;;;;;;;16.45;93.11;101348.34;5044919;28;20452;-81
2022/10/12 08:48:51;;;;;;;9.20;2.85;;;;;;;16.50;92.52;101350.47;5044147;28;20029;-81
2022/10/12 08:51:24;;;;;;;9.18;3.50;;;;;;;16.63;92.98;101350.81;5043934;28;20047;-81
2022/10/12 08:54:05;;;;;;;11.93;4.00;;;;;;;16.70;91.99;101351.84;5048867;28;20108;-81
2022/10/12 08:56:33;;;;;;;9.85;4.07;;;;;;;16.77;90.64;101363.38;5049710;28;20070;-81
2022/10/12 08:59:00;;;;;;;6.55;3.40;;;;;;;16.81;89.91;101359.41;5047807;28;20099;-82
2022/10/12 09:01:49;;;;;;;11.02;4.93;;;;;;;16.83;89.85;101354.00;5045045;28;20191;-81
2022/10/12 09:04:53;;;;;;;9.77;4.38;;;;;;;16.84;88.88;101363.53;5048309;28;20036;-81
2022/10/12 09:07:24;;;;;;;16.08;5.10;;;;;;;16.89;89.23;101353.34;5043807;28;20035;-81
2022/10/12 09:10:09;;;;;;;9.88;4.70;;;;;;;16.92;88.11;101347.75;5046865;28;20392;-82
2022/10/12 09:12:37;;;;;;;10.83;4.17;;;;;;;16.97;88.86;101349.91;5043769;28;20032;-81
2022/10/12 09:15:13;;;;;;;11.90;4.03;;;;;;;16.96;88.28;101349.06;5047266;28;20031;-81
2022/10/12 09:17:43;;;;;;;7.65;3.15;;;;;;;17.02;86.60;101350.19;5042682;28;20492;-80
2022/10/12 09:20:22;;;;;;;9.75;3.88;;;;;;;17.05;86.06;101332.25;5029509;28;20037;-81
2022/10/12 09:23:04;;;;;;;10.85;3.88;;;;;;;17.05;85.89;101344.59;5040260;28;20042;-81
2022/10/12 09:25:29;;;;;;;7.20;3.10;;;;;;;17.04;85.88;101338.50;5047502;28;20132;-81
2022/10/12 09:28:11;;;;;;;10.65;3.67;;;;;;;17.08;84.90;101339.84;5043948;28;20119;-81
2022/10/12 09:30:43;;;;;;;13.50;3.40;;;;;;;17.17;84.74;101332.75;5043690;28;20051;-84
2022/10/12 09:33:22;;;;;;;12.00;3.63;;;;;;;17.18;84.94;101334.41;5039031;28;20467;-81
2022/10/12 09:35:49;;;;;;;10.45;2.95;;;;;;;17.16;85.46;101331.94;5047485;28;20033;-81
2022/10/12 09:38:15;;;;;;;5.43;3.30;;;;;;;17.14;84.94;101331.28;5040484;28;20182;-81
2022/10/12 09:40:41;;;;;;;9.98;3.45;;;;;;;17.13;84.95;101324.38;5045784;28;20108;-81
2022/10/12 09:43:08;;;;;;;14.38;3.90;;;;;;;17.11;83.29;101328.16;5045896;28;20422;-81
2022/10/12 09:45:34;;;;;;;12.15;3.25;;;;;;;17.18;83.69;101321.22;5063314;28;20044;-83
2022/10/12 09:48:22;;;;;;;11.68;3.50;;;;;;;17.22;85.52;101319.91;5064058;28;20110;-81
2022/10/12 09:50:54;;;;;;;6.50;2.92;;;;;;;17.17;85.24;101323.03;5044180;28;20124;-82
2022/10/12 09:53:33;;;;;;;6.43;2.47;;;;;;;17.22;84.66;101318.09;5043102;28;20048;-81
2022/10/12 09:56:04;;;;;;;7.13;2.00;;;;;;;17.32;83.64;101309.19;5047039;28;20158;-81
2022/10/12 09:58:34;;;;;;;13.43;2.70;;;;;;;17.37;83.24;101312.97;5047187;28;20210;-81
2022/10/12 10:01:12;;;;;;;4.68;2.88;;;;;;;17.40;81.88;101311.81;5048767;28;20040;-80
2022/10/12 10:03:37;;;;;;;10.43;2.60;;;;;;;17.50;81.63;101305.34;5048831;28;20032;-81
2022/10/12 10:06:04;;;;;;;8.48;2.22;;;;;;;17.55;81.66;101313.56;5047190;28;20492;-81
2022/10/12 10:08:39;;;;;;;7.13;2.47;;;;;;;17.62;81.40;101310.25;5045936;28;20144;-82
2022/10/12 10:11:04;;;;;;;7.78;2.00;;;;;;;17.66;81.30;101304.50;5047007;28;20115;-81
2022/10/12 10:13:35;;;;;;;4.40;2.42;;;;;;;17.74;80.27;101308.94;5040728;28;20508;-81
2022/10/12 10:16:06;;;;;;;13.68;2.55;;;;;;;17.80;81.47;101302.97;5046234;28;20049;-81
2022/10/12 10:18:55;;;;;;;8.57;2.10;;;;;;;17.79;79.79;101296.06;5044443;28;20029;-81
2022/10/12 10:21:28;;;;;;;6.90;2.60;;;;;;;17.79;79.93;101303.97;5047121;28;20111;-81
2022/10/12 10:23:57;;;;;;;10.75;2.40;;;;;;;17.84;79.96;101304.28;5045651;28;20154;-81
2022/10/12 10:26:24;;;;;;;9.57;2.58;;;;;;;17.93;79.56;101302.44;5044672;28;20452;-82
2022/10/12 10:28:56;;;;;;;4.63;2.30;;;;;;;17.99;80.42;101301.72;5043377;28;20433;-81
2022/10/12 10:31:26;;;;;;;9.77;2.53;;;;;;;18.08;80.17;101308.59;5047783;28;20033;-80
2022/10/12 10:34:19;;;;;;;10.27;2.78;;;;;;;18.16;78.66;101308.56;5045621;28;20573;-81
2022/10/12 10:36:51;;;;;;;7.10;1.83;;;;;;;18.30;77.92;101296.44;5044866;28;20537;-81
2022/10/12 10:39:19;;;;;;;8.75;1.92;;;;;;;18.36;76.76;101299.22;5045220;28;20331;-81
2022/10/12 10:41:45;;;;;;;6.65;2.70;;;;;;;18.53;75.35;101305.19;5045980;28;20021;-81
2022/10/12 10:44:32;;;;;;;8.18;2.40;;;;;;;18.53;73.29;101295.44;5043012;28;20033;-81
2022/10/12 10:47:10;;;;;;;11.30;3.00;;;;;;;18.75;71.96;101288.56;5043172;28;20040;-81
2022/10/12 10:49:41;;;;;;;6.72;1.92;;;;;;;18.89;71.64;101290.41;5044514;28;20578;-81
2022/10/12 10:52:18;;;;;;;13.18;2.47;;;;;;;18.77;73.54;101296.28;5044215;28;20032;-81
2022/10/12 10:54:44;;;;;;;9.88;2.45;;;;;;;18.72;74.08;101288.09;5045478;28;20469;-81
2022/10/12 10:57:19;;;;;;;6.38;2.25;;;;;;;18.70;72.51;101296.19;5042367;28;20127;-81
2022/10/12 10:59:55;;;;;;;5.88;2.17;;;;;;;18.65;72.86;101287.97;5041020;28;20033;-81
2022/10/12 11:02:39;;;;;;;3.78;1.88;;;;;;;18.56;72.16;101294.28;5045985;28;20069;-81
2022/10/12 11:05:17;;;;;;;4.72;2.30;;;;;;;18.58;72.38;101287.00;5047067;28;20041;-81
2022/10/12 11:07:42;;;;;;;6.65;2.58;;;;;;;18.67;73.65;101285.97;5045893;28;20086;-81
2022/10/12 11:10:21;;;;;;;9.75;2.67;;;;;;;18.69;73.65;101288.44;5042090;28;20032;-81
2022/10/12 11:12:54;;;;;;;5.35;2.30;;;;;;;18.75;74.02;101288.56;5047139;28;20110;-81
2022/10/12 11:15:31;;;;;;;5.60;2.40;;;;;;;18.85;72.78;101290.94;5043154;28;20075;-80
2022/10/12 11:18:03;;;;;;;5.82;2.17;;;;;;;18.81;73.88;101295.75;5045824;28;20467;-81
2022/10/12 11:20:54;;;;;;;4.43;2.65;;;;;;;18.84;73.39;101284.03;5045489;28;20381;-81
2022/10/12 11:23:24;;;;;;;5.63;2.15;;;;;;;18.82;73.89;101286.03;5042739;28;20124;-81
2022/10/12 11:26:08;;;;;;;6.75;2.78;;;;;;;18.81;74.03;101282.56;5043308;28;20033;-81